createdAt,value
2023-04-10T19:31:36.689Z,35.61
2023-04-10T19:34:09.102Z,35.31
2023-04-10T19:36:36.641Z,34.70
2023-04-10T19:39:04.475Z,34.62
2023-04-10T19:41:31.081Z,34.32
2023-04-10T19:43:58.561Z,35.21
2023-04-10T19:46:25.555Z,35.74
2023-04-10T19:48:52.277Z,34.57
2023-04-10T19:51:18.988Z,33.97
2023-04-10T19:53:45.744Z,33.79
2023-04-10T19:56:12.427Z,33.72
2023-04-10T19:58:41.430Z,33.62
2023-04-10T20:01:09.331Z,33.54
2023-04-10T20:03:37.141Z,33.52
2023-04-10T20:06:04.647Z,33.68
2023-04-10T20:08:31.284Z,33.46
2023-04-10T20:10:58.414Z,32.93
2023-04-10T20:13:25.363Z,33.15
2023-04-10T20:15:52.366Z,33.44
2023-04-10T20:18:19.009Z,33.54
2023-04-10T20:20:45.609Z,34.00
2023-04-10T20:23:12.780Z,33.10
2023-04-10T20:25:39.630Z,33.04
2023-04-10T20:28:06.568Z,32.97
2023-04-10T20:30:33.276Z,32.85
2023-04-10T20:32:59.970Z,32.87
2023-04-10T20:35:27.201Z,32.54
2023-04-10T20:37:53.811Z,32.51
2023-04-10T20:40:20.344Z,33.89
2023-04-10T20:42:46.925Z,33.04
2023-04-10T20:45:13.547Z,33.71
2023-04-10T20:47:40.617Z,32.31
2023-04-10T20:50:08.240Z,32.89
2023-04-10T20:52:35.404Z,32.81
2023-04-10T20:55:02.702Z,32.71
2023-04-10T20:57:29.357Z,32.52
2023-04-10T20:59:55.931Z,32.59
2023-04-10T21:02:22.711Z,34.52
2023-04-10T21:04:50.493Z,32.86
2023-04-10T21:07:17.079Z,32.68
2023-04-10T21:09:43.823Z,34.52
2023-04-10T21:12:10.385Z,33.05
2023-04-10T21:14:36.961Z,33.77
2023-04-10T21:17:03.630Z,32.54
2023-04-10T21:19:30.374Z,32.67
2023-04-10T21:21:57.350Z,33.11
2023-04-10T21:24:23.942Z,32.81
2023-04-10T21:26:50.498Z,34.33
2023-04-10T21:29:17.316Z,32.77
2023-04-10T21:31:43.955Z,32.47
2023-04-10T21:34:10.745Z,32.65
2023-04-10T21:36:39.071Z,32.35
2023-04-10T21:39:09.502Z,32.48
2023-04-10T21:41:37.664Z,32.49
2023-04-10T21:44:05.703Z,32.34
2023-04-10T21:46:33.833Z,32.45
2023-04-10T21:49:00.707Z,32.57
2023-04-10T21:51:27.999Z,32.37
2023-04-10T21:53:54.871Z,32.90
2023-04-10T21:56:21.545Z,32.74
2023-04-10T21:58:48.543Z,32.74
2023-04-10T22:01:15.475Z,32.64
2023-04-10T22:03:44.893Z,33.41
2023-04-10T22:06:11.545Z,34.70
2023-04-10T22:08:41.477Z,34.27
2023-04-10T22:11:08.608Z,35.05
2023-04-10T22:13:35.220Z,36.09
2023-04-10T22:16:05.872Z,35.13
2023-04-10T22:18:32.668Z,36.27
2023-04-10T22:20:59.296Z,37.00
2023-04-10T22:23:26.025Z,36.10
2023-04-10T22:25:52.631Z,37.55
2023-04-10T22:28:19.257Z,36.73
2023-04-10T22:30:46.081Z,38.32
2023-04-10T22:33:12.766Z,38.13
2023-04-10T22:35:39.334Z,36.85
2023-04-10T22:38:06.096Z,38.98
2023-04-10T22:40:32.646Z,37.19
2023-04-10T22:42:59.283Z,39.63
2023-04-10T22:45:25.851Z,37.94
2023-04-10T22:47:52.522Z,40.10
2023-04-10T22:50:19.010Z,37.97
2023-04-10T22:52:45.643Z,41.48
2023-04-10T22:55:12.343Z,38.95
2023-04-10T22:57:39.002Z,42.29
2023-04-10T23:00:06.203Z,39.61
2023-04-10T23:02:33.063Z,42.91
2023-04-10T23:04:59.764Z,43.17
2023-04-10T23:07:27.999Z,39.65
2023-04-10T23:09:54.748Z,43.51
2023-04-10T23:12:21.279Z,40.77
2023-04-10T23:14:47.887Z,44.12
2023-04-10T23:17:14.460Z,40.95
2023-04-10T23:19:41.077Z,44.90
2023-04-10T23:22:07.696Z,41.07
2023-04-10T23:24:34.270Z,45.64
2023-04-10T23:27:00.852Z,46.39
2023-04-10T23:29:27.471Z,47.64
2023-04-10T23:31:53.965Z,42.94
2023-04-10T23:34:21.364Z,48.22
2023-04-10T23:36:48.084Z,48.79
2023-04-10T23:39:14.651Z,46.27
2023-04-10T23:41:41.325Z,48.78
2023-04-10T23:44:07.828Z,45.64
2023-04-10T23:46:34.630Z,48.62
2023-04-10T23:49:01.301Z,48.35
2023-04-10T23:51:28.263Z,48.64
2023-04-10T23:53:54.848Z,49.15
2023-04-10T23:56:21.741Z,49.37
2023-04-10T23:58:48.477Z,49.82
